createdAt,value
2019-01-12T00:00:11.062Z,2.00
2019-01-12T00:02:16.454Z,2.10
2019-01-12T00:04:23.481Z,2.10
2019-01-12T00:06:27.274Z,2.10
2019-01-12T00:08:30.907Z,2.20
2019-01-12T00:10:34.612Z,2.10
2019-01-12T00:12:38.418Z,2.10
2019-01-12T00:14:42.069Z,2.10
2019-01-12T00:16:45.959Z,2.20
2019-01-12T00:18:49.639Z,2.20
2019-01-12T00:20:53.469Z,2.20
2019-01-12T00:22:57.112Z,2.20
2019-01-12T00:25:00.837Z,2.20
2019-01-12T00:27:04.666Z,2.20
2019-01-12T00:29:08.402Z,2.20
2019-01-12T00:31:12.181Z,2.20
2019-01-12T00:33:15.969Z,2.20
2019-01-12T00:35:19.679Z,2.20
2019-01-12T00:37:23.411Z,2.20
2019-01-12T00:39:27.032Z,2.20
2019-01-12T00:41:30.724Z,2.30
2019-01-12T00:43:34.302Z,2.30
2019-01-12T00:45:38.047Z,2.30
2019-01-12T00:47:43.467Z,2.30
2019-01-12T00:49:47.102Z,2.20
2019-01-12T00:51:51.537Z,2.30
2019-01-12T00:53:55.265Z,2.30
2019-01-12T00:55:58.927Z,2.30
2019-01-12T00:58:02.702Z,2.30
2019-01-12T01:00:09.497Z,2.30
2019-01-12T01:02:15.037Z,2.40
2019-01-12T01:04:18.839Z,2.40
2019-01-12T01:06:22.575Z,2.30
2019-01-12T01:08:26.298Z,2.40
2019-01-12T01:10:30.027Z,2.40
2019-01-12T01:12:33.861Z,2.30
2019-01-12T01:14:37.609Z,2.30
2019-01-12T01:16:41.285Z,2.30
2019-01-12T01:18:45.095Z,2.30
2019-01-12T01:20:48.821Z,2.30
2019-01-12T01:22:52.539Z,2.30
2019-01-12T01:24:56.315Z,2.30
2019-01-12T01:26:59.987Z,2.40
2019-01-12T01:29:03.728Z,2.30
2019-01-12T01:31:07.333Z,2.30
2019-01-12T01:33:11.019Z,2.30
2019-01-12T01:35:14.739Z,2.30
2019-01-12T01:37:20.542Z,2.30
2019-01-12T01:39:24.257Z,2.30
2019-01-12T01:41:28.027Z,2.40
2019-01-12T01:43:31.818Z,2.40
2019-01-12T01:45:35.589Z,2.40
2019-01-12T01:47:39.410Z,2.30
2019-01-12T01:49:43.191Z,2.30
2019-01-12T01:51:46.894Z,2.30
2019-01-12T01:53:50.720Z,2.30
2019-01-12T01:55:54.416Z,2.30
2019-01-12T01:57:58.060Z,2.30
2019-01-12T02:00:01.789Z,2.30
2019-01-12T02:02:06.908Z,2.40
2019-01-12T02:04:10.987Z,2.30
2019-01-12T02:06:16.134Z,2.30
2019-01-12T02:08:19.807Z,2.30
2019-01-12T02:10:23.627Z,2.30
2019-01-12T02:12:28.185Z,2.30
2019-01-12T02:14:31.936Z,2.40
2019-01-12T02:16:35.589Z,2.40
2019-01-12T02:18:39.374Z,2.40
2019-01-12T02:20:43.042Z,2.50
2019-01-12T02:22:46.718Z,2.50
2019-01-12T02:24:50.325Z,2.50
2019-01-12T02:26:54.062Z,2.50
2019-01-12T02:28:58.004Z,2.50
2019-01-12T02:31:01.612Z,2.60
2019-01-12T02:33:05.334Z,2.50
2019-01-12T02:35:09.081Z,2.60
2019-01-12T02:37:12.759Z,2.60
2019-01-12T02:39:16.607Z,2.60
2019-01-12T02:41:20.359Z,2.60
2019-01-12T02:43:24.033Z,2.60
2019-01-12T02:45:27.831Z,2.60
2019-01-12T02:47:31.504Z,2.50
2019-01-12T02:49:35.301Z,2.60
2019-01-12T02:51:39.080Z,2.50
2019-01-12T02:53:42.778Z,2.50
2019-01-12T02:55:46.554Z,2.60
2019-01-12T02:57:50.204Z,2.60
2019-01-12T02:59:53.830Z,2.60
2019-01-12T03:01:57.491Z,2.70
2019-01-12T03:04:01.273Z,2.70
2019-01-12T03:06:06.554Z,2.70
2019-01-12T03:08:10.270Z,2.70
2019-01-12T03:10:15.122Z,2.70
2019-01-12T03:12:18.784Z,2.70
2019-01-12T03:14:22.495Z,2.70
2019-01-12T03:16:26.243Z,2.60
2019-01-12T03:18:29.897Z,2.70
2019-01-12T03:20:33.614Z,2.70
2019-01-12T03:22:37.338Z,2.80
2019-01-12T03:24:41.057Z,2.80
2019-01-12T03:26:44.898Z,2.80
2019-01-12T03:28:48.562Z,2.80
2019-01-12T03:30:52.180Z,2.80
2019-01-12T03:32:55.830Z,2.80
2019-01-12T03:34:59.547Z,2.70
2019-01-12T03:37:03.217Z,2.80
2019-01-12T03:39:08.018Z,2.80
2019-01-12T03:41:11.870Z,2.80
2019-01-12T03:43:15.598Z,2.80
2019-01-12T03:45:19.529Z,2.80
2019-01-12T03:47:23.221Z,2.90
2019-01-12T03:49:26.913Z,2.90
2019-01-12T03:51:30.667Z,2.90
2019-01-12T03:53:34.382Z,2.90
2019-01-12T03:55:38.097Z,2.90
2019-01-12T03:57:41.853Z,2.90
2019-01-12T03:59:45.578Z,2.90
2019-01-12T04:01:49.382Z,2.90
2019-01-12T04:03:53.057Z,2.90
2019-01-12T04:05:57.052Z,2.90
2019-01-12T04:08:00.790Z,2.80
2019-01-12T04:10:06.507Z,2.90
2019-01-12T04:12:10.292Z,2.90
2019-01-12T04:14:14.026Z,2.90
2019-01-12T04:16:17.950Z,2.90
2019-01-12T04:18:21.641Z,2.90
2019-01-12T04:20:25.413Z,2.90
2019-01-12T04:22:29.111Z,3.00
2019-01-12T04:24:32.826Z,2.90
2019-01-12T04:26:36.480Z,2.90
2019-01-12T04:28:43.607Z,2.90
2019-01-12T04:30:47.366Z,2.90
2019-01-12T04:32:51.183Z,3.00
2019-01-12T04:34:54.904Z,2.90
2019-01-12T04:36:58.645Z,3.00
2019-01-12T04:39:02.373Z,3.00
2019-01-12T04:41:06.232Z,3.00
2019-01-12T04:43:09.950Z,3.00
2019-01-12T04:45:13.785Z,3.00
2019-01-12T04:47:18.782Z,3.00
2019-01-12T04:49:22.450Z,3.10
2019-01-12T04:51:26.032Z,3.10
2019-01-12T04:53:29.774Z,3.10
2019-01-12T04:55:41.054Z,3.00
2019-01-12T04:57:38.941Z,3.00
2019-01-12T04:59:42.621Z,3.00
2019-01-12T05:01:46.510Z,3.00
2019-01-12T05:03:50.226Z,3.00
2019-01-12T05:05:53.777Z,3.10
2019-01-12T05:07:57.571Z,3.10
2019-01-12T05:10:01.387Z,3.20
2019-01-12T05:12:06.687Z,3.20
2019-01-12T05:14:10.485Z,3.20
2019-01-12T05:16:14.070Z,3.20
2019-01-12T05:18:17.883Z,3.20
2019-01-12T05:20:21.656Z,3.10
2019-01-12T05:22:25.202Z,3.20
2019-01-12T05:24:28.851Z,3.20
2019-01-12T05:26:32.638Z,3.20
2019-01-12T05:28:36.353Z,3.20
2019-01-12T05:30:40.109Z,3.20
2019-01-12T05:32:43.905Z,3.20
2019-01-12T05:34:47.649Z,3.20
2019-01-12T05:36:51.372Z,3.20
2019-01-12T05:38:55.095Z,3.20
2019-01-12T05:40:58.813Z,3.30
2019-01-12T05:43:02.558Z,3.30
2019-01-12T05:45:11.248Z,3.30
2019-01-12T05:47:14.933Z,3.30
2019-01-12T05:49:18.585Z,3.20
2019-01-12T05:51:22.260Z,3.20
2019-01-12T05:53:26.054Z,3.20
2019-01-12T05:55:29.795Z,3.20
2019-01-12T05:57:33.477Z,3.20
2019-01-12T05:59:37.127Z,3.30
2019-01-12T06:01:42.327Z,3.30
2019-01-12T06:03:46.013Z,3.30
2019-01-12T06:05:49.825Z,3.20
2019-01-12T06:07:53.555Z,3.20
2019-01-12T06:09:57.218Z,3.20
2019-01-12T06:12:00.796Z,3.20
2019-01-12T06:14:04.804Z,3.40
2019-01-12T06:16:08.709Z,3.30
2019-01-12T06:18:12.391Z,3.40
2019-01-12T06:20:16.548Z,3.40
2019-01-12T06:22:20.181Z,3.40
2019-01-12T06:24:23.858Z,3.40
2019-01-12T06:26:27.618Z,3.50
2019-01-12T06:28:31.365Z,3.50
2019-01-12T06:30:36.828Z,3.50
2019-01-12T06:32:40.498Z,3.50
2019-01-12T06:34:44.102Z,3.50
2019-01-12T06:36:47.680Z,3.50
2019-01-12T06:38:51.551Z,3.50
2019-01-12T06:40:55.254Z,3.50
2019-01-12T06:42:58.938Z,3.50
2019-01-12T06:45:02.652Z,3.50
2019-01-12T06:47:06.363Z,3.50
2019-01-12T06:49:09.990Z,3.50
2019-01-12T06:51:13.601Z,3.50
2019-01-12T06:53:17.401Z,3.50
2019-01-12T06:55:21.148Z,3.50
2019-01-12T06:57:24.790Z,3.50
2019-01-12T06:59:28.485Z,3.50
2019-01-12T07:01:32.101Z,3.50
2019-01-12T07:03:35.755Z,3.50
2019-01-12T07:05:39.551Z,3.60
2019-01-12T07:07:43.261Z,3.50
2019-01-12T07:09:46.984Z,3.50
2019-01-12T07:11:50.675Z,3.40
2019-01-12T07:13:54.245Z,3.40
2019-01-12T07:15:57.946Z,3.50
2019-01-12T07:18:01.653Z,3.40
2019-01-12T07:20:08.649Z,3.50
2019-01-12T07:22:12.275Z,3.50
2019-01-12T07:24:15.973Z,3.50
2019-01-12T07:26:19.658Z,3.60
2019-01-12T07:28:23.344Z,3.60
2019-01-12T07:30:27.089Z,3.70
2019-01-12T07:32:30.800Z,3.70
2019-01-12T07:34:34.620Z,3.70
2019-01-12T07:36:38.520Z,3.70
2019-01-12T07:38:42.120Z,3.70
2019-01-12T07:40:46.104Z,3.70
2019-01-12T07:42:49.766Z,3.60
2019-01-12T07:44:53.444Z,3.60
2019-01-12T07:46:57.072Z,3.60
2019-01-12T07:49:00.878Z,3.70
2019-01-12T07:51:04.728Z,3.70
2019-01-12T07:53:08.768Z,3.70
2019-01-12T07:55:12.710Z,3.70
2019-01-12T07:57:16.384Z,3.70
2019-01-12T07:59:20.156Z,3.70
2019-01-12T08:01:23.951Z,3.70
2019-01-12T08:03:27.683Z,3.80
2019-01-12T08:05:31.330Z,3.70
2019-01-12T08:07:35.148Z,3.80
2019-01-12T08:09:38.881Z,3.80
2019-01-12T08:11:42.683Z,3.80
2019-01-12T08:13:46.692Z,3.80
2019-01-12T08:15:50.449Z,3.80
2019-01-12T08:17:54.225Z,3.80
2019-01-12T08:19:58.070Z,3.90
2019-01-12T08:22:01.902Z,3.90
2019-01-12T08:24:05.484Z,3.90
2019-01-12T08:26:09.219Z,3.90
2019-01-12T08:28:12.973Z,3.90
2019-01-12T08:30:19.274Z,3.90
2019-01-12T08:32:24.481Z,3.90
2019-01-12T08:34:28.256Z,3.90
2019-01-12T08:36:32.030Z,3.90
2019-01-12T08:38:35.874Z,3.90
2019-01-12T08:40:39.480Z,3.90
2019-01-12T08:42:43.308Z,3.90
2019-01-12T08:44:46.945Z,3.90
2019-01-12T08:46:50.641Z,3.90
2019-01-12T08:48:54.305Z,3.90
2019-01-12T08:50:58.016Z,3.90
2019-01-12T08:53:01.701Z,4.00
2019-01-12T08:55:07.823Z,4.00
2019-01-12T08:57:11.558Z,4.00
2019-01-12T08:59:15.325Z,4.00
2019-01-12T09:01:19.068Z,4.00
2019-01-12T09:03:22.874Z,4.00
2019-01-12T09:05:26.517Z,4.00
2019-01-12T09:07:30.200Z,4.00
2019-01-12T09:09:33.878Z,4.00
2019-01-12T09:11:37.628Z,4.00
2019-01-12T09:13:41.387Z,4.00
2019-01-12T09:15:45.052Z,4.00
2019-01-12T09:17:48.830Z,4.00
2019-01-12T09:19:52.744Z,4.00
2019-01-12T09:21:56.417Z,4.00
2019-01-12T09:24:00.036Z,4.00
2019-01-12T09:26:03.760Z,4.00
2019-01-12T09:28:07.590Z,4.00
2019-01-12T09:30:14.081Z,4.00
2019-01-12T09:32:17.795Z,4.00
2019-01-12T09:34:21.508Z,4.00
2019-01-12T09:36:25.237Z,4.10
2019-01-12T09:38:29.033Z,4.10
2019-01-12T09:40:32.689Z,4.10
2019-01-12T09:42:36.328Z,4.20
2019-01-12T09:44:40.088Z,4.20
2019-01-12T09:46:46.222Z,4.20
2019-01-12T09:48:49.942Z,4.30
2019-01-12T09:50:53.622Z,4.30
2019-01-12T09:52:57.214Z,4.30
2019-01-12T09:55:00.849Z,4.20
2019-01-12T09:57:04.650Z,4.30
2019-01-12T09:59:08.357Z,4.30
2019-01-12T10:01:12.195Z,4.30
2019-01-12T10:03:15.939Z,4.30
2019-01-12T10:05:19.785Z,4.30
2019-01-12T10:07:23.514Z,4.40
2019-01-12T10:09:27.200Z,4.30
2019-01-12T10:11:32.353Z,4.30
2019-01-12T10:13:36.052Z,4.30
2019-01-12T10:15:40.912Z,4.40
2019-01-12T10:17:44.819Z,4.30
2019-01-12T10:19:48.586Z,4.30
2019-01-12T10:21:52.301Z,4.30
2019-01-12T10:23:56.059Z,4.40
2019-01-12T10:25:59.808Z,4.40
2019-01-12T10:28:03.530Z,4.40
2019-01-12T10:30:13.199Z,4.40
2019-01-12T10:32:16.952Z,4.40
2019-01-12T10:34:20.633Z,4.40
2019-01-12T10:36:24.438Z,4.40
2019-01-12T10:38:28.373Z,4.40
2019-01-12T10:40:32.048Z,4.40
2019-01-12T10:42:35.855Z,4.40
2019-01-12T10:44:39.689Z,4.40
2019-01-12T10:46:44.553Z,4.40
2019-01-12T10:48:48.318Z,4.30
2019-01-12T10:50:52.170Z,4.30
2019-01-12T10:52:55.877Z,4.40
2019-01-12T10:54:59.580Z,4.40
2019-01-12T10:57:05.541Z,4.40
2019-01-12T10:59:10.730Z,4.40
2019-01-12T11:01:14.196Z,4.40
2019-01-12T11:03:17.991Z,4.40
2019-01-12T11:05:21.701Z,4.30
2019-01-12T11:07:25.428Z,4.30
2019-01-12T11:09:29.178Z,4.40
2019-01-12T11:11:32.947Z,4.40
2019-01-12T11:13:36.702Z,4.40
2019-01-12T11:15:40.496Z,4.30
2019-01-12T11:17:44.311Z,4.30
2019-01-12T11:19:47.995Z,4.50
2019-01-12T11:21:51.788Z,4.50
2019-01-12T11:23:55.521Z,4.50
2019-01-12T11:25:59.339Z,4.50
2019-01-12T11:28:03.079Z,4.50
2019-01-12T11:30:10.150Z,4.50
2019-01-12T11:32:13.890Z,4.60
2019-01-12T11:34:17.615Z,4.60
2019-01-12T11:36:22.351Z,4.60
2019-01-12T11:38:26.031Z,4.60
2019-01-12T11:40:29.869Z,4.60
2019-01-12T11:42:34.188Z,4.70
2019-01-12T11:44:37.943Z,4.70
2019-01-12T11:46:41.678Z,4.70
2019-01-12T11:48:46.189Z,4.70
2019-01-12T11:50:49.770Z,4.60
2019-01-12T11:52:53.473Z,4.70
2019-01-12T11:54:57.094Z,4.60
2019-01-12T11:57:00.842Z,4.60
2019-01-12T11:59:04.571Z,4.60
2019-01-12T12:01:08.384Z,4.60
2019-01-12T12:03:12.191Z,4.60
2019-01-12T12:05:17.244Z,4.60
2019-01-12T12:07:21.086Z,4.60
2019-01-12T12:09:24.806Z,4.60
2019-01-12T12:11:28.539Z,4.60
2019-01-12T12:13:32.332Z,4.50
2019-01-12T12:15:35.998Z,4.50
2019-01-12T12:17:39.766Z,4.50
2019-01-12T12:19:43.388Z,4.50
2019-01-12T12:21:47.075Z,4.50
2019-01-12T12:23:50.788Z,4.50
2019-01-12T12:25:54.547Z,4.60
2019-01-12T12:27:58.227Z,4.50
2019-01-12T12:30:02.390Z,4.60
2019-01-12T12:32:06.109Z,4.60
2019-01-12T12:34:09.873Z,4.60
2019-01-12T12:36:13.615Z,4.50
2019-01-12T12:38:17.440Z,4.60
2019-01-12T12:40:22.291Z,4.70
2019-01-12T12:42:25.974Z,4.60
2019-01-12T12:44:29.698Z,4.60
2019-01-12T12:46:33.694Z,4.60
2019-01-12T12:48:37.378Z,4.60
2019-01-12T12:50:41.154Z,4.60
2019-01-12T12:52:45.025Z,4.60
2019-01-12T12:54:48.880Z,4.60
2019-01-12T12:56:52.614Z,4.60
2019-01-12T12:58:56.493Z,4.60
2019-01-12T13:01:00.270Z,4.60
2019-01-12T13:03:05.174Z,4.50
2019-01-12T13:05:09.963Z,4.50
2019-01-12T13:07:13.649Z,4.40
2019-01-12T13:09:17.489Z,4.40
2019-01-12T13:11:21.267Z,4.40
2019-01-12T13:13:24.919Z,4.50
2019-01-12T13:15:28.694Z,4.40
2019-01-12T13:17:32.456Z,4.40
2019-01-12T13:19:36.234Z,4.40
2019-01-12T13:21:40.030Z,4.40
2019-01-12T13:23:43.824Z,4.40
2019-01-12T13:25:47.551Z,4.40
2019-01-12T13:27:51.453Z,4.40
2019-01-12T13:29:55.246Z,4.40
2019-01-12T13:31:59.126Z,4.40
2019-01-12T13:34:02.939Z,4.40
2019-01-12T13:36:08.244Z,4.40
2019-01-12T13:38:11.930Z,4.50
2019-01-12T13:40:21.743Z,4.50
2019-01-12T13:42:25.744Z,4.40
2019-01-12T13:44:29.460Z,4.40
2019-01-12T13:46:33.218Z,4.40
2019-01-12T13:48:36.922Z,4.40
2019-01-12T13:50:40.695Z,4.40
2019-01-12T13:52:44.430Z,4.40
2019-01-12T13:54:48.188Z,4.40
2019-01-12T13:56:51.930Z,4.40
2019-01-12T13:58:55.515Z,4.40
2019-01-12T14:00:59.270Z,4.40
2019-01-12T14:03:03.029Z,4.40
2019-01-12T14:05:07.557Z,4.40
2019-01-12T14:07:11.353Z,4.40
2019-01-12T14:09:15.394Z,4.40
2019-01-12T14:11:19.496Z,4.40
2019-01-12T14:13:23.231Z,4.40
2019-01-12T14:15:27.114Z,4.50
2019-01-12T14:17:33.324Z,4.40
2019-01-12T14:19:37.061Z,4.40
2019-01-12T14:21:40.764Z,4.40
2019-01-12T14:23:44.383Z,4.40
2019-01-12T14:25:48.154Z,4.40
2019-01-12T14:27:54.817Z,4.40
2019-01-12T14:29:57.429Z,4.40
2019-01-12T14:32:01.281Z,4.40
2019-01-12T14:34:05.044Z,4.40
2019-01-12T14:36:08.767Z,4.40
2019-01-12T14:38:12.601Z,4.50
2019-01-12T14:40:18.151Z,4.50
2019-01-12T14:42:21.906Z,4.50
2019-01-12T14:44:27.394Z,4.50
2019-01-12T14:46:31.406Z,4.50
2019-01-12T14:48:37.692Z,4.50
2019-01-12T14:50:41.662Z,4.50
2019-01-12T14:52:45.545Z,4.50
2019-01-12T14:54:49.500Z,4.50
2019-01-12T14:56:53.923Z,4.50
2019-01-12T14:58:58.703Z,4.50
2019-01-12T15:01:03.061Z,4.60
2019-01-12T15:03:07.113Z,4.60
2019-01-12T15:05:13.529Z,4.50
2019-01-12T15:07:17.420Z,4.50
2019-01-12T15:09:21.202Z,4.50
2019-01-12T15:11:24.953Z,4.50
2019-01-12T15:13:28.780Z,4.40
2019-01-12T15:15:32.514Z,4.40
2019-01-12T15:17:36.340Z,4.40
2019-01-12T15:19:40.059Z,4.40
2019-01-12T15:21:43.766Z,4.40
2019-01-12T15:23:53.090Z,4.40
2019-01-12T15:25:54.433Z,4.40
2019-01-12T15:27:58.209Z,4.40
2019-01-12T15:30:01.938Z,4.40
2019-01-12T15:32:05.722Z,4.40
2019-01-12T15:34:09.513Z,4.40
2019-01-12T15:36:15.529Z,4.40
2019-01-12T15:38:19.686Z,4.40
2019-01-12T15:40:23.735Z,4.40
2019-01-12T15:42:28.058Z,4.40
2019-01-12T15:44:31.749Z,4.40
2019-01-12T15:46:35.487Z,4.40
2019-01-12T15:48:43.187Z,4.40
2019-01-12T15:50:48.247Z,4.40
2019-01-12T15:53:01.523Z,4.40
2019-01-12T15:55:00.230Z,4.30
2019-01-12T15:57:05.738Z,4.30
2019-01-12T15:59:09.491Z,4.30
2019-01-12T16:01:13.456Z,4.30
2019-01-12T16:03:19.949Z,4.30
2019-01-12T16:05:25.172Z,4.30
2019-01-12T16:07:29.120Z,4.30
2019-01-12T16:09:32.917Z,4.30
2019-01-12T16:11:36.505Z,4.30
2019-01-12T16:13:44.203Z,4.30
2019-01-12T16:15:48.098Z,4.30
2019-01-12T16:17:53.498Z,4.30
2019-01-12T16:19:58.383Z,4.30
2019-01-12T16:22:02.423Z,4.30
2019-01-12T16:24:06.088Z,4.30
2019-01-12T16:26:09.875Z,4.30
2019-01-12T16:28:14.361Z,4.30
2019-01-12T16:30:19.934Z,4.20
2019-01-12T16:32:23.704Z,4.20
2019-01-12T16:34:27.628Z,4.10
2019-01-12T16:36:31.823Z,4.10
2019-01-12T16:38:37.307Z,4.10
2019-01-12T16:40:41.012Z,4.10
2019-01-12T16:42:46.773Z,4.10
2019-01-12T16:44:51.201Z,4.10
2019-01-12T16:46:57.317Z,4.10
2019-01-12T16:49:01.478Z,4.10
2019-01-12T16:51:06.712Z,4.10
2019-01-12T16:53:10.943Z,4.10
2019-01-12T16:55:20.129Z,4.00
2019-01-12T16:57:23.982Z,4.10
2019-01-12T16:59:27.730Z,4.10
2019-01-12T17:01:31.678Z,4.00
2019-01-12T17:03:35.255Z,4.10
2019-01-12T17:05:39.115Z,4.00
2019-01-12T17:07:42.860Z,4.00
2019-01-12T17:09:46.579Z,4.00
2019-01-12T17:11:50.365Z,4.00
2019-01-12T17:13:54.061Z,4.00
2019-01-12T17:15:57.829Z,4.00
2019-01-12T17:18:01.502Z,4.00
2019-01-12T17:20:08.206Z,3.90
2019-01-12T17:22:12.152Z,3.90
2019-01-12T17:24:16.956Z,3.90
2019-01-12T17:26:20.901Z,3.90
2019-01-12T17:28:24.624Z,3.90
2019-01-12T17:30:29.805Z,3.90
2019-01-12T17:32:33.465Z,4.00
2019-01-12T17:34:37.064Z,4.00
2019-01-12T17:36:41.213Z,4.00
2019-01-12T17:38:44.941Z,4.00
2019-01-12T17:40:48.660Z,4.00
2019-01-12T17:42:52.475Z,4.00
2019-01-12T17:44:59.823Z,4.00
2019-01-12T17:47:04.967Z,4.00
2019-01-12T17:49:08.856Z,4.00
2019-01-12T17:51:17.132Z,3.90
2019-01-12T17:53:21.191Z,4.00
2019-01-12T17:55:25.404Z,3.90
2019-01-12T17:57:30.640Z,3.90
2019-01-12T17:59:35.093Z,4.00
2019-01-12T18:01:38.679Z,4.10
2019-01-12T18:03:43.387Z,4.10
2019-01-12T18:05:47.121Z,4.10
2019-01-12T18:07:50.782Z,4.10
2019-01-12T18:09:54.443Z,4.10
2019-01-12T18:11:58.166Z,4.10
2019-01-12T18:14:01.969Z,4.00
2019-01-12T18:16:05.710Z,4.00
2019-01-12T18:18:09.671Z,4.10
2019-01-12T18:20:15.790Z,4.10
2019-01-12T18:22:19.537Z,4.10
2019-01-12T18:24:23.309Z,4.10
2019-01-12T18:26:27.327Z,4.10
2019-01-12T18:28:31.707Z,4.10
2019-01-12T18:30:39.872Z,4.10
2019-01-12T18:32:42.096Z,4.10
2019-01-12T18:34:46.189Z,4.10
2019-01-12T18:36:50.473Z,4.20
2019-01-12T18:38:54.250Z,4.20
2019-01-12T18:40:58.223Z,4.20
2019-01-12T18:43:04.768Z,4.30
2019-01-12T18:45:11.566Z,4.30
2019-01-12T18:47:15.705Z,4.20
2019-01-12T18:49:20.658Z,4.30
2019-01-12T18:51:25.491Z,4.30
2019-01-12T18:53:29.325Z,4.40
2019-01-12T18:55:35.347Z,4.40
2019-01-12T18:57:40.863Z,4.40
2019-01-12T18:59:57.595Z,4.40
2019-01-12T19:02:09.592Z,4.50
2019-01-12T19:04:14.335Z,4.50
2019-01-12T19:06:18.588Z,4.50
2019-01-12T19:08:25.368Z,4.50
2019-01-12T19:10:38.238Z,4.50
2019-01-12T19:12:58.756Z,4.60
2019-01-12T19:14:53.920Z,4.60
2019-01-12T19:17:01.452Z,4.60
2019-01-12T19:19:15.484Z,4.60
2019-01-12T19:21:23.040Z,4.60
2019-01-12T19:23:30.794Z,4.60
2019-01-12T19:25:37.585Z,4.60
2019-01-12T19:27:52.006Z,4.70
2019-01-12T19:29:56.868Z,4.70
2019-01-12T19:32:01.791Z,4.70
2019-01-12T19:34:06.074Z,4.70
2019-01-12T19:36:12.447Z,4.70
2019-01-12T19:38:18.765Z,4.70
2019-01-12T19:40:23.520Z,4.70
2019-01-12T19:42:27.603Z,4.70
2019-01-12T19:44:31.627Z,4.70
2019-01-12T19:46:35.472Z,4.70
2019-01-12T19:48:39.088Z,4.70
2019-01-12T19:50:42.663Z,4.70
2019-01-12T19:52:46.500Z,4.70
2019-01-12T19:54:50.270Z,4.70
2019-01-12T19:56:54.113Z,4.70
2019-01-12T19:58:57.830Z,4.80
2019-01-12T20:01:01.492Z,4.80
2019-01-12T20:03:05.348Z,4.80
2019-01-12T20:05:09.064Z,4.90
2019-01-12T20:07:12.804Z,4.90
2019-01-12T20:09:16.503Z,4.90
2019-01-12T20:11:20.622Z,4.90
2019-01-12T20:13:24.352Z,4.90
2019-01-12T20:15:28.130Z,4.90
2019-01-12T20:17:32.252Z,4.90
2019-01-12T20:19:38.004Z,4.90
2019-01-12T20:21:43.361Z,4.90
2019-01-12T20:23:47.121Z,4.90
2019-01-12T20:25:51.436Z,4.90
2019-01-12T20:27:55.202Z,4.90
2019-01-12T20:29:59.058Z,5.00
2019-01-12T20:32:16.481Z,5.00
2019-01-12T20:34:29.349Z,5.00
2019-01-12T20:36:52.119Z,4.90
2019-01-12T20:39:04.558Z,5.00
2019-01-12T20:41:11.377Z,5.10
2019-01-12T20:43:18.436Z,5.10
2019-01-12T20:45:45.729Z,5.10
2019-01-12T20:48:08.599Z,5.10
2019-01-12T20:50:12.746Z,5.10
2019-01-12T20:52:34.383Z,5.10
2019-01-12T20:54:46.779Z,5.10
2019-01-12T20:57:05.701Z,5.10
2019-01-12T20:59:15.581Z,5.10
2019-01-12T21:01:34.059Z,5.10
2019-01-12T21:03:48.969Z,5.10
2019-01-12T21:05:58.816Z,5.10
2019-01-12T21:08:09.107Z,5.10
2019-01-12T21:10:24.438Z,5.10
2019-01-12T21:12:31.332Z,5.10
2019-01-12T21:14:43.915Z,5.10
2019-01-12T21:16:48.265Z,5.10
2019-01-12T21:18:51.899Z,5.10
2019-01-12T21:20:55.713Z,5.10
2019-01-12T21:22:59.554Z,5.10
2019-01-12T21:25:03.913Z,5.10
2019-01-12T21:27:07.780Z,5.10
2019-01-12T21:29:11.557Z,5.10
2019-01-12T21:31:15.213Z,5.10
2019-01-12T21:33:19.587Z,5.20
2019-01-12T21:35:23.423Z,5.20
2019-01-12T21:37:28.188Z,5.20
2019-01-12T21:39:35.698Z,5.20
2019-01-12T21:41:40.902Z,5.20
2019-01-12T21:43:45.981Z,5.20
2019-01-12T21:45:50.340Z,5.30
2019-01-12T21:47:54.487Z,5.30
2019-01-12T21:49:58.697Z,5.30
2019-01-12T21:52:04.164Z,5.20
2019-01-12T21:54:08.294Z,5.30
2019-01-12T21:56:11.859Z,5.30
2019-01-12T21:58:16.546Z,5.30
2019-01-12T22:00:21.282Z,5.30
2019-01-12T22:02:24.985Z,5.30
2019-01-12T22:04:28.749Z,5.30
2019-01-12T22:06:35.272Z,5.30
2019-01-12T22:08:38.928Z,5.30
2019-01-12T22:10:44.579Z,5.30
2019-01-12T22:12:49.621Z,5.30
2019-01-12T22:14:55.548Z,5.30
2019-01-12T22:17:00.199Z,5.30
2019-01-12T22:19:03.902Z,5.30
2019-01-12T22:21:08.812Z,5.30
2019-01-12T22:23:13.298Z,5.30
2019-01-12T22:25:17.764Z,5.30
2019-01-12T22:27:21.811Z,5.40
2019-01-12T22:29:28.995Z,5.40
2019-01-12T22:31:35.326Z,5.40
2019-01-12T22:33:39.734Z,5.50
2019-01-12T22:35:43.682Z,5.50
2019-01-12T22:37:47.350Z,5.50
2019-01-12T22:39:51.738Z,5.50
2019-01-12T22:41:56.016Z,5.50
2019-01-12T22:44:00.062Z,5.50
2019-01-12T22:46:04.451Z,5.50
2019-01-12T22:48:08.207Z,5.60
2019-01-12T22:50:14.989Z,5.50
2019-01-12T22:52:18.651Z,5.60
2019-01-12T22:54:24.152Z,5.50
2019-01-12T22:56:27.859Z,5.50
2019-01-12T22:58:31.568Z,5.50
2019-01-12T23:00:48.218Z,5.50
2019-01-12T23:02:51.960Z,5.50
2019-01-12T23:04:56.077Z,5.50
2019-01-12T23:07:00.111Z,5.50
2019-01-12T23:09:05.499Z,5.50
2019-01-12T23:11:09.383Z,5.50
2019-01-12T23:13:13.133Z,5.50
2019-01-12T23:15:19.439Z,5.50
2019-01-12T23:17:23.235Z,5.50
2019-01-12T23:19:26.942Z,5.50
2019-01-12T23:21:32.755Z,5.50
2019-01-12T23:23:36.550Z,5.50
2019-01-12T23:25:40.150Z,5.50
2019-01-12T23:27:46.955Z,5.50
2019-01-12T23:29:54.894Z,5.50
2019-01-12T23:32:00.759Z,5.50
2019-01-12T23:34:04.936Z,5.50
2019-01-12T23:36:08.707Z,5.50
2019-01-12T23:38:12.455Z,5.50
2019-01-12T23:40:16.772Z,5.50
2019-01-12T23:42:20.619Z,5.60
2019-01-12T23:44:24.311Z,5.70
2019-01-12T23:46:28.109Z,5.60
2019-01-12T23:48:31.701Z,5.60
2019-01-12T23:50:35.422Z,5.60
2019-01-12T23:52:39.171Z,5.60
2019-01-12T23:54:42.904Z,5.60
2019-01-12T23:56:46.655Z,5.60
2019-01-12T23:58:50.403Z,5.60
